Time;durP1;ratioP1;P1;durP2;ratioP2;P2;SDS_P1;SDS_P2;PMS_P1;PMS_P2;Temp;Humidity;BMP_temperature;BMP_pressure;BME280_temperature;BME280_humidity;BME280_pressure;Samples;Min_cycle;Max_cycle;Signal;HPM_P1;HPM_P2
2023/07/18 00:00:40;;;;;;;8.70;3.45;;;15.10;99.90;;;;;;4947914;28;20038;-89
2023/07/18 00:03:15;;;;;;;8.40;3.50;;;15.00;99.90;;;;;;4984347;28;20394;-91
2023/07/18 00:05:42;;;;;;;7.28;3.35;;;15.10;99.90;;;;;;4973784;28;20053;-90
2023/07/18 00:08:08;;;;;;;6.88;3.20;;;15.10;99.90;;;;;;4963679;28;20043;-88
2023/07/18 00:10:34;;;;;;;9.25;3.78;;;15.00;99.90;;;;;;4954712;28;20078;-90
2023/07/18 00:13:00;;;;;;;7.80;3.63;;;14.90;99.90;;;;;;5029301;28;20113;-88
2023/07/18 00:15:26;;;;;;;6.20;3.10;;;15.00;99.90;;;;;;5045155;28;20529;-89
2023/07/18 00:17:52;;;;;;;11.50;4.13;;;14.90;99.90;;;;;;4948952;28;20068;-90
2023/07/18 00:20:18;;;;;;;9.52;4.05;;;15.00;99.90;;;;;;4954192;28;20491;-90
2023/07/18 00:22:49;;;;;;;10.38;3.28;;;15.00;99.90;;;;;;5061170;28;20444;-90
2023/07/18 00:25:19;;;;;;;9.80;3.50;;;15.00;99.90;;;;;;4955895;28;20045;-91
2023/07/18 00:27:45;;;;;;;7.60;3.25;;;14.90;99.90;;;;;;5060687;28;20387;-91
2023/07/18 00:30:12;;;;;;;10.20;4.00;;;14.90;99.90;;;;;;4972686;28;20057;-91
2023/07/18 00:32:47;;;;;;;8.57;3.80;;;14.90;99.90;;;;;;4967480;28;20497;-90
2023/07/18 00:35:16;;;;;;;8.73;3.72;;;14.90;99.90;;;;;;5043378;28;20047;-91
2023/07/18 00:37:43;;;;;;;9.50;3.65;;;14.90;99.90;;;;;;5045298;28;20052;-90
2023/07/18 00:40:16;;;;;;;10.88;4.35;;;14.80;99.90;;;;;;4964049;28;20046;-89
2023/07/18 00:42:55;;;;;;;7.85;3.13;;;14.90;99.90;;;;;;4957696;28;20132;-90
2023/07/18 00:45:22;;;;;;;12.93;3.80;;;14.90;99.90;;;;;;4988839;28;20063;-92
2023/07/18 00:47:48;;;;;;;14.00;4.75;;;14.90;99.90;;;;;;5041205;28;20069;-90
2023/07/18 00:50:17;;;;;;;10.52;3.65;;;15.20;99.90;;;;;;5060495;28;20046;-89
2023/07/18 00:52:50;;;;;;;11.50;4.13;;;15.00;99.90;;;;;;5068804;28;20078;-89
2023/07/18 00:55:16;;;;;;;9.38;4.53;;;15.00;99.90;;;;;;5056454;28;20673;-89
2023/07/18 00:57:45;;;;;;;12.95;3.80;;;15.00;99.90;;;;;;5074993;28;20030;-90
2023/07/18 01:00:12;;;;;;;10.05;3.60;;;14.90;99.90;;;;;;4980233;28;20133;-90
2023/07/18 01:02:39;;;;;;;9.75;3.83;;;15.00;99.90;;;;;;4957618;28;20045;-90
2023/07/18 01:05:06;;;;;;;12.48;4.20;;;15.00;99.90;;;;;;5025817;28;20529;-90
2023/07/18 01:07:34;;;;;;;8.35;3.65;;;15.00;99.90;;;;;;4963898;28;20050;-90
2023/07/18 01:10:26;;;;;;;10.73;3.90;;;15.00;99.90;;;;;;4972514;28;20893;-89
2023/07/18 01:13:02;;;;;;;6.18;3.65;;;15.00;99.90;;;;;;5044152;28;20039;-90
2023/07/18 01:15:32;;;;;;;9.55;3.72;;;15.00;99.90;;;;;;4965823;28;20127;-90
2023/07/18 01:18:03;;;;;;;16.60;4.25;;;14.90;99.90;;;;;;4981481;28;20034;-89
2023/07/18 01:20:29;;;;;;;9.63;4.20;;;14.90;99.90;;;;;;5037873;28;20035;-89
2023/07/18 01:23:01;;;;;;;8.35;4.03;;;15.30;99.90;;;;;;4961412;28;20072;-88
2023/07/18 01:25:27;;;;;;;10.10;4.00;;;14.80;99.90;;;;;;5066618;28;20125;-90
2023/07/18 01:27:55;;;;;;;7.78;3.70;;;14.80;99.90;;;;;;4964596;28;20038;-89
2023/07/18 01:30:27;;;;;;;9.43;3.67;;;14.80;99.90;;;;;;4963155;28;20043;-90
2023/07/18 01:32:54;;;;;;;9.02;3.75;;;14.60;99.90;;;;;;5063349;28;20050;-90
2023/07/18 01:35:21;;;;;;;10.98;4.07;;;14.80;99.90;;;;;;4963499;28;20044;-90
2023/07/18 01:37:47;;;;;;;13.63;4.30;;;14.80;99.90;;;;;;4954650;28;20034;-91
2023/07/18 01:40:15;;;;;;;11.25;4.43;;;14.80;99.90;;;;;;4973166;28;20518;-90
2023/07/18 01:42:45;;;;;;;12.30;3.97;;;14.80;99.90;;;;;;4969814;28;20129;-89
2023/07/18 01:45:11;;;;;;;11.82;3.97;;;14.00;99.90;;;;;;4958479;28;20044;-89
2023/07/18 01:47:38;;;;;;;15.13;5.05;;;14.70;99.90;;;;;;4977700;28;20050;-91
2023/07/18 01:50:05;;;;;;;14.77;4.68;;;14.80;99.90;;;;;;4975644;28;20116;-88
2023/07/18 01:52:32;;;;;;;11.40;4.05;;;14.70;99.90;;;;;;5054174;28;20042;-89
2023/07/18 01:54:59;;;;;;;10.80;3.63;;;14.70;99.90;;;;;;4959496;28;20588;-90
2023/07/18 01:57:29;;;;;;;7.90;3.75;;;14.70;99.90;;;;;;5055760;28;20117;-88
2023/07/18 01:59:55;;;;;;;14.25;4.03;;;14.80;99.90;;;;;;4973160;28;20046;-90
2023/07/18 02:02:21;;;;;;;9.05;4.00;;;14.70;99.90;;;;;;4988306;28;20642;-89
2023/07/18 02:04:49;;;;;;;11.52;4.13;;;14.70;99.90;;;;;;4968065;28;20051;-90
2023/07/18 02:07:15;;;;;;;10.55;4.05;;;14.70;99.90;;;;;;4960608;28;20137;-89
2023/07/18 02:09:41;;;;;;;11.63;4.07;;;14.70;99.90;;;;;;4979011;28;20035;-88
2023/07/18 02:12:08;;;;;;;10.05;4.82;;;14.70;99.90;;;;;;4987164;28;20050;-87
2023/07/18 02:14:36;;;;;;;8.85;4.20;;;14.70;99.90;;;;;;4959026;28;20138;-89
2023/07/18 02:17:03;;;;;;;11.43;4.30;;;14.80;99.90;;;;;;5081950;28;20053;-90
2023/07/18 02:19:29;;;;;;;13.70;4.75;;;14.80;99.90;;;;;;5044873;28;20093;-89
2023/07/18 02:21:54;;;;;;;10.52;4.65;;;14.80;99.90;;;;;;4957304;28;20038;-89
2023/07/18 02:24:20;;;;;;;7.70;3.63;;;14.70;99.90;;;;;;4968036;28;20156;-91
2023/07/18 02:26:46;;;;;;;9.65;4.15;;;14.70;99.90;;;;;;4962423;28;20061;-89
2023/07/18 02:29:13;;;;;;;13.10;4.75;;;14.70;99.90;;;;;;4972725;28;20043;-91
2023/07/18 02:31:39;;;;;;;10.55;4.78;;;14.70;99.90;;;;;;4949643;28;20051;-90
2023/07/18 02:34:06;;;;;;;14.02;4.25;;;14.70;99.90;;;;;;4955881;28;20559;-90
2023/07/18 02:36:32;;;;;;;13.05;4.32;;;14.70;99.90;;;;;;4952154;28;20042;-90
2023/07/18 02:38:59;;;;;;;10.50;4.25;;;14.70;99.90;;;;;;4955595;28;20046;-90
2023/07/18 02:41:25;;;;;;;11.63;4.63;;;14.80;99.90;;;;;;5058422;28;20039;-89
2023/07/18 02:43:51;;;;;;;9.60;4.03;;;14.60;99.90;;;;;;5044989;28;20047;-89
2023/07/18 02:46:17;;;;;;;11.23;4.53;;;14.60;99.90;;;;;;4974810;28;20047;-90
2023/07/18 02:48:43;;;;;;;12.18;4.55;;;14.70;99.90;;;;;;4955476;28;20053;-91
2023/07/18 02:51:10;;;;;;;13.70;4.40;;;14.70;99.90;;;;;;4956770;28;20581;-89
2023/07/18 02:53:36;;;;;;;8.32;4.30;;;14.70;99.90;;;;;;4963539;28;20033;-87
2023/07/18 02:56:01;;;;;;;14.88;4.22;;;14.70;99.90;;;;;;4956006;28;20134;-89
2023/07/18 02:58:27;;;;;;;11.57;4.43;;;14.70;99.90;;;;;;5033978;28;20034;-88
2023/07/18 03:00:53;;;;;;;10.30;4.47;;;14.70;99.90;;;;;;4982871;28;20061;-88
2023/07/18 03:03:21;;;;;;;9.13;3.97;;;13.80;99.90;;;;;;4968046;28;20096;-88
2023/07/18 03:05:47;;;;;;;9.02;3.95;;;14.60;99.90;;;;;;4964958;28;20060;-88
2023/07/18 03:08:13;;;;;;;10.38;4.40;;;14.10;99.90;;;;;;5061982;28;20050;-88
2023/07/18 03:10:42;;;;;;;11.80;4.18;;;14.60;99.90;;;;;;4997895;28;20062;-88
2023/07/18 03:13:07;;;;;;;10.90;4.28;;;14.50;99.90;;;;;;4957809;28;20045;-88
2023/07/18 03:15:34;;;;;;;10.75;4.03;;;14.00;99.90;;;;;;5058632;28;20445;-88
2023/07/18 03:18:04;;;;;;;8.38;4.25;;;14.50;99.90;;;;;;5067775;28;20042;-89
2023/07/18 03:20:29;;;;;;;15.07;4.43;;;14.50;99.90;;;;;;4974044;28;20454;-88
2023/07/18 03:22:55;;;;;;;8.38;4.30;;;14.40;99.90;;;;;;4962969;28;20050;-89
2023/07/18 03:25:21;;;;;;;10.98;3.95;;;14.30;99.90;;;;;;5044853;28;20042;-88
2023/07/18 03:27:47;;;;;;;9.77;4.30;;;14.30;99.90;;;;;;4947913;28;20054;-88
2023/07/18 03:30:13;;;;;;;13.98;4.30;;;14.40;99.90;;;;;;4992599;28;20042;-88
2023/07/18 03:32:40;;;;;;;13.05;4.95;;;14.40;99.90;;;;;;5060665;28;20035;-89
2023/07/18 03:35:09;;;;;;;13.25;5.03;;;14.60;99.90;;;;;;4995860;28;20035;-89
2023/07/18 03:37:37;;;;;;;15.85;5.63;;;14.50;99.90;;;;;;4966669;28;20031;-89
2023/07/18 03:40:07;;;;;;;11.32;4.50;;;14.60;99.90;;;;;;4969363;28;20052;-88
2023/07/18 03:42:33;;;;;;;18.77;5.35;;;14.60;99.90;;;;;;4961672;28;20379;-88
2023/07/18 03:44:59;;;;;;;14.27;5.20;;;14.60;99.90;;;;;;4988261;28;20772;-88
2023/07/18 03:47:25;;;;;;;15.82;5.68;;;14.60;99.90;;;;;;4954960;28;20093;-88
2023/07/18 03:49:51;;;;;;;11.85;5.28;;;14.70;99.90;;;;;;4961684;28;20039;-89
2023/07/18 03:52:18;;;;;;;13.27;4.90;;;14.60;99.90;;;;;;4971396;28;20047;-88
2023/07/18 03:54:47;;;;;;;11.82;4.63;;;14.60;99.90;;;;;;4955659;28;20068;-89
2023/07/18 03:57:14;;;;;;;11.07;4.32;;;14.60;99.90;;;;;;4961385;28;20042;-89
2023/07/18 03:59:39;;;;;;;14.68;4.43;;;14.70;99.90;;;;;;4973271;28;20035;-87
2023/07/18 04:02:06;;;;;;;12.63;4.57;;;14.60;99.90;;;;;;4948272;28;20126;-89
2023/07/18 04:04:31;;;;;;;12.07;5.60;;;14.70;99.90;;;;;;4955036;28;20038;-89
2023/07/18 04:06:57;;;;;;;9.20;4.78;;;14.80;99.90;;;;;;4960297;28;20092;-88
2023/07/18 04:09:30;;;;;;;13.00;5.55;;;14.60;99.90;;;;;;4991898;28;20096;-88
2023/07/18 04:11:56;;;;;;;14.07;4.90;;;14.70;99.90;;;;;;4965031;28;20042;-88
2023/07/18 04:14:23;;;;;;;14.70;5.40;;;14.60;99.90;;;;;;5067038;28;20172;-89
2023/07/18 04:16:49;;;;;;;16.30;5.85;;;14.10;99.90;;;;;;4990466;28;20036;-88
2023/07/18 04:19:15;;;;;;;17.65;5.35;;;14.70;99.90;;;;;;4985306;28;20494;-89
2023/07/18 04:21:41;;;;;;;14.18;4.30;;;14.80;99.90;;;;;;4957351;28;20046;-89
2023/07/18 04:24:08;;;;;;;18.98;5.28;;;14.80;99.90;;;;;;5067380;28;20054;-88
2023/07/18 04:26:34;;;;;;;15.55;5.43;;;14.80;99.90;;;;;;4991947;28;20058;-88
2023/07/18 04:29:01;;;;;;;12.55;4.78;;;14.80;99.90;;;;;;5065457;28;20057;-89
2023/07/18 04:31:27;;;;;;;13.80;5.85;;;14.80;99.90;;;;;;5061355;28;20049;-88
2023/07/18 04:33:52;;;;;;;16.02;5.88;;;14.80;99.90;;;;;;5063346;28;20034;-88
2023/07/18 04:36:18;;;;;;;15.32;5.38;;;14.90;99.90;;;;;;4961807;28;20050;-89
2023/07/18 04:38:47;;;;;;;15.82;6.03;;;14.90;99.90;;;;;;4990684;28;20083;-91
2023/07/18 04:41:13;;;;;;;13.23;5.80;;;14.90;99.90;;;;;;4960968;28;20406;-88
2023/07/18 04:43:39;;;;;;;10.63;4.93;;;14.90;99.90;;;;;;4972515;28;20067;-90
2023/07/18 04:46:05;;;;;;;12.30;5.10;;;15.10;99.90;;;;;;4958281;28;20046;-89
2023/07/18 04:48:30;;;;;;;14.45;5.65;;;15.10;99.90;;;;;;4970637;28;20042;-89
2023/07/18 04:51:01;;;;;;;19.05;5.80;;;15.10;99.90;;;;;;4980954;28;20047;-87
2023/07/18 04:53:29;;;;;;;15.07;5.28;;;15.20;99.90;;;;;;4969158;28;20042;-90
2023/07/18 04:55:55;;;;;;;14.52;5.70;;;15.30;99.90;;;;;;5066870;28;20475;-89
2023/07/18 04:58:25;;;;;;;10.90;5.28;;;15.20;99.90;;;;;;4968839;28;20057;-88
2023/07/18 05:00:53;;;;;;;14.32;5.93;;;15.30;99.90;;;;;;5047595;28;20375;-88
2023/07/18 05:03:19;;;;;;;11.32;5.00;;;15.30;99.90;;;;;;4966049;28;20486;-89
2023/07/18 05:05:45;;;;;;;11.43;5.55;;;15.40;99.90;;;;;;4973776;28;20080;-88
2023/07/18 05:08:11;;;;;;;11.52;5.53;;;15.50;99.90;;;;;;5055174;28;20126;-89
2023/07/18 05:10:37;;;;;;;15.90;5.45;;;15.40;99.90;;;;;;4966532;28;20038;-89
2023/07/18 05:13:03;;;;;;;13.48;4.90;;;15.40;99.90;;;;;;4959296;28;20050;-90
2023/07/18 05:15:28;;;;;;;13.20;5.32;;;15.40;99.90;;;;;;4964062;28;20382;-90
2023/07/18 05:17:54;;;;;;;15.43;5.65;;;15.60;99.90;;;;;;5060723;28;20043;-90
2023/07/18 05:20:20;;;;;;;11.05;5.60;;;15.60;99.90;;;;;;5045428;28;20041;-89
2023/07/18 05:22:45;;;;;;;15.52;5.78;;;15.70;99.90;;;;;;4968154;28;20051;-89
2023/07/18 05:25:14;;;;;;;12.63;5.13;;;15.70;99.90;;;;;;4971205;28;20079;-89
2023/07/18 05:27:41;;;;;;;10.68;5.13;;;15.80;99.90;;;;;;4973114;28;20042;-90
2023/07/18 05:30:18;;;;;;;11.82;5.68;;;15.80;99.90;;;;;;4998335;28;20047;-88
2023/07/18 05:32:45;;;;;;;13.02;5.60;;;15.90;99.90;;;;;;4964651;28;20134;-89
2023/07/18 05:35:13;;;;;;;12.65;5.55;;;16.10;99.90;;;;;;5017088;28;20556;-87
2023/07/18 05:37:41;;;;;;;13.45;4.78;;;16.10;99.90;;;;;;4950917;28;20030;-90
2023/07/18 05:40:10;;;;;;;12.75;6.32;;;16.30;99.90;;;;;;4981326;28;20038;-87
2023/07/18 05:42:37;;;;;;;11.77;5.13;;;16.40;99.90;;;;;;4979132;28;20097;-87
2023/07/18 05:45:05;;;;;;;15.13;5.88;;;16.50;99.90;;;;;;4957146;28;20115;-88
2023/07/18 05:47:30;;;;;;;16.50;5.85;;;16.50;99.90;;;;;;4971141;28;20046;-89
2023/07/18 05:49:56;;;;;;;9.10;4.80;;;16.50;99.90;;;;;;5018967;28;20073;-89
2023/07/18 05:52:22;;;;;;;16.67;5.90;;;16.50;99.90;;;;;;4993112;28;20082;-88
2023/07/18 05:54:47;;;;;;;12.35;4.90;;;16.40;99.90;;;;;;4996330;28;20034;-90
2023/07/18 05:57:13;;;;;;;12.05;5.28;;;16.50;99.90;;;;;;4965831;28;20042;-88
2023/07/18 05:59:39;;;;;;;10.05;5.28;;;16.60;99.90;;;;;;4965560;28;22132;-90
2023/07/18 06:02:05;;;;;;;11.68;4.93;;;16.70;99.90;;;;;;4963915;28;20042;-88
2023/07/18 06:04:31;;;;;;;12.48;5.25;;;16.70;99.90;;;;;;4958755;28;20091;-88
2023/07/18 06:06:57;;;;;;;13.27;5.65;;;16.70;99.90;;;;;;4965010;28;20133;-91
2023/07/18 06:09:23;;;;;;;12.00;4.68;;;16.70;99.90;;;;;;5013503;28;20050;-89
2023/07/18 06:11:50;;;;;;;11.10;5.43;;;16.70;99.90;;;;;;4960815;28;20703;-89
2023/07/18 06:14:16;;;;;;;10.77;4.38;;;16.80;99.90;;;;;;4972159;28;20054;-90
2023/07/18 06:16:42;;;;;;;11.30;5.57;;;16.30;99.90;;;;;;5059687;28;20034;-89
2023/07/18 06:19:12;;;;;;;12.15;5.13;;;16.80;99.90;;;;;;4965024;28;20072;-90
2023/07/18 06:21:38;;;;;;;13.25;5.22;;;16.80;99.90;;;;;;4974750;28;20404;-91
2023/07/18 06:24:05;;;;;;;13.80;5.45;;;17.00;99.90;;;;;;4956572;28;20099;-89
2023/07/18 06:26:31;;;;;;;10.52;4.32;;;17.10;99.90;;;;;;4954929;28;20034;-89
2023/07/18 06:28:57;;;;;;;12.27;5.32;;;17.20;99.90;;;;;;4990190;28;20070;-90
2023/07/18 06:31:23;;;;;;;9.80;5.10;;;17.40;99.90;;;;;;4997956;28;20137;-89
2023/07/18 06:33:48;;;;;;;11.07;4.65;;;17.20;99.90;;;;;;4965827;28;20035;-88
2023/07/18 06:36:15;;;;;;;8.60;4.47;;;17.40;99.90;;;;;;4983669;28;20127;-89
2023/07/18 06:38:41;;;;;;;14.48;5.70;;;17.40;99.90;;;;;;5000251;28;20041;-89
2023/07/18 06:41:07;;;;;;;12.52;5.25;;;17.60;99.90;;;;;;4976381;28;20091;-88
2023/07/18 06:43:33;;;;;;;13.85;5.38;;;17.70;99.90;;;;;;4992666;28;20041;-89
2023/07/18 06:45:59;;;;;;;13.82;5.22;;;17.60;99.90;;;;;;5042594;28;22744;-87
2023/07/18 06:48:25;;;;;;;18.83;5.75;;;17.90;99.90;;;;;;4953211;28;20125;-89
2023/07/18 06:50:53;;;;;;;13.50;5.50;;;18.10;99.90;;;;;;4974447;28;21895;-88
2023/07/18 06:53:21;;;;;;;14.65;5.35;;;18.10;99.90;;;;;;5070813;28;20039;-88
2023/07/18 06:55:48;;;;;;;15.85;5.65;;;18.10;99.90;;;;;;5069861;28;20042;-90
2023/07/18 06:58:15;;;;;;;15.00;5.18;;;18.00;99.90;;;;;;4975316;28;20085;-90
2023/07/18 07:00:41;;;;;;;12.65;4.85;;;18.10;99.90;;;;;;4970988;28;20044;-92
2023/07/18 07:03:11;;;;;;;16.45;5.78;;;18.20;99.90;;;;;;4977495;28;20043;-90
2023/07/18 07:05:42;;;;;;;10.25;5.07;;;17.30;99.90;;;;;;5038568;28;20055;-91
2023/07/18 07:08:18;;;;;;;11.25;5.40;;;18.20;99.90;;;;;;4967736;28;20104;-89
2023/07/18 07:10:47;;;;;;;12.30;4.93;;;18.30;99.90;;;;;;4957895;28;20066;-89
2023/07/18 07:13:12;;;;;;;15.20;5.53;;;18.70;99.90;;;;;;4947780;28;20512;-89
2023/07/18 07:15:38;;;;;;;16.35;5.88;;;18.70;99.90;;;;;;4967643;28;20034;-92
2023/07/18 07:18:06;;;;;;;17.83;5.60;;;19.10;99.90;;;;;;4972870;28;20045;-91
2023/07/18 07:20:32;;;;;;;13.95;5.18;;;18.90;99.90;;;;;;4974180;28;20039;-88
2023/07/18 07:22:59;;;;;;;14.02;5.90;;;18.70;99.90;;;;;;4953882;28;20043;-91
2023/07/18 07:25:30;;;;;;;11.88;6.00;;;19.10;99.90;;;;;;4967589;28;20239;-90
2023/07/18 07:27:59;;;;;;;13.77;5.47;;;19.00;99.90;;;;;;5060285;28;20050;-92
2023/07/18 07:30:25;;;;;;;8.10;3.88;;;19.40;99.90;;;;;;4955190;28;20043;-92
2023/07/18 07:32:54;;;;;;;15.70;5.88;;;19.50;99.90;;;;;;4954617;28;20199;-91
2023/07/18 07:35:22;;;;;;;13.18;5.45;;;19.50;99.90;;;;;;4980325;28;20069;-91
2023/07/18 07:37:54;;;;;;;14.70;5.50;;;19.80;99.90;;;;;;4971425;28;20561;-89
2023/07/18 07:40:20;;;;;;;15.32;5.70;;;19.90;99.90;;;;;;4967789;28;20038;-93
2023/07/18 07:42:46;;;;;;;15.13;5.25;;;20.00;99.90;;;;;;4965654;28;20042;-90
2023/07/18 07:45:20;;;;;;;14.23;5.13;;;20.20;99.90;;;;;;4968781;28;20095;-90
2023/07/18 07:47:48;;;;;;;10.68;5.60;;;20.10;99.90;;;;;;4963694;28;20046;-90
2023/07/18 07:50:15;;;;;;;10.90;4.25;;;20.20;99.90;;;;;;5063295;28;20049;-91
2023/07/18 07:52:40;;;;;;;13.82;4.70;;;20.40;99.90;;;;;;5000110;28;20331;-91
2023/07/18 07:55:07;;;;;;;13.18;4.40;;;20.70;99.90;;;;;;4985640;28;20045;-91
2023/07/18 07:57:33;;;;;;;11.98;4.28;;;20.50;99.90;;;;;;4989200;28;20238;-89
2023/07/18 07:59:59;;;;;;;11.70;3.70;;;20.50;99.90;;;;;;5065396;28;20070;-88
2023/07/18 08:02:26;;;;;;;11.20;4.55;;;20.70;99.90;;;;;;4985082;28;20500;-89
2023/07/18 08:04:52;;;;;;;11.93;4.05;;;20.80;99.90;;;;;;5005518;28;20058;-90
2023/07/18 08:07:18;;;;;;;9.93;3.70;;;21.00;99.90;;;;;;5049598;28;20185;-89
2023/07/18 08:09:47;;;;;;;11.07;4.13;;;21.20;99.90;;;;;;4969777;28;20050;-90
2023/07/18 08:12:13;;;;;;;12.20;3.83;;;21.30;99.90;;;;;;4958371;28;20125;-90
2023/07/18 08:14:39;;;;;;;13.15;4.35;;;21.40;99.90;;;;;;4962583;28;20050;-90
2023/07/18 08:17:05;;;;;;;11.98;3.42;;;21.40;99.90;;;;;;4960754;28;20758;-90
2023/07/18 08:19:35;;;;;;;8.35;3.08;;;21.50;99.90;;;;;;5055675;28;20195;-89
2023/07/18 08:22:02;;;;;;;7.63;3.15;;;21.40;99.90;;;;;;4975841;28;20046;-89
2023/07/18 08:24:28;;;;;;;7.38;2.67;;;21.40;99.90;;;;;;5022653;28;20044;-90
2023/07/18 08:26:54;;;;;;;6.00;2.75;;;21.60;99.90;;;;;;4965068;28;20052;-90
2023/07/18 08:29:20;;;;;;;7.72;2.33;;;21.70;99.90;;;;;;4972391;28;20121;-89
2023/07/18 08:31:46;;;;;;;8.45;2.67;;;21.50;99.90;;;;;;5017107;28;20074;-89
2023/07/18 08:34:12;;;;;;;8.00;1.85;;;21.70;99.90;;;;;;5008015;28;20036;-91
2023/07/18 08:36:39;;;;;;;4.55;2.25;;;21.50;99.90;;;;;;4957305;28;20414;-89
2023/07/18 08:39:05;;;;;;;4.82;1.90;;;21.60;99.90;;;;;;5020097;28;20546;-89
2023/07/18 08:41:31;;;;;;;4.57;1.88;;;21.50;99.90;;;;;;4960818;28;20133;-89
2023/07/18 08:44:02;;;;;;;4.68;2.10;;;21.90;99.90;;;;;;4978658;28;20038;-89
2023/07/18 08:46:28;;;;;;;4.90;2.20;;;22.10;99.90;;;;;;4970514;28;20043;-91
2023/07/18 08:48:55;;;;;;;5.60;2.10;;;22.30;99.90;;;;;;5003300;28;20039;-89
2023/07/18 08:51:21;;;;;;;8.70;2.67;;;22.30;99.90;;;;;;4970699;28;20555;-91
2023/07/18 08:53:47;;;;;;;7.13;2.20;;;22.30;99.90;;;;;;4971375;28;20039;-91
2023/07/18 08:56:13;;;;;;;6.47;2.30;;;22.00;99.90;;;;;;4972381;28;20042;-89
2023/07/18 08:58:39;;;;;;;7.45;2.20;;;22.30;99.90;;;;;;5003930;28;20113;-88
2023/07/18 09:01:09;;;;;;;6.97;2.42;;;22.50;99.90;;;;;;4975570;28;20038;-90
2023/07/18 09:03:35;;;;;;;4.40;2.00;;;22.60;99.90;;;;;;5012104;28;20043;-88
2023/07/18 09:06:02;;;;;;;6.32;1.90;;;22.20;99.90;;;;;;4986101;28;20073;-88
2023/07/18 09:08:41;;;;;;;3.55;1.63;;;22.50;99.90;;;;;;4986100;28;20505;-90
2023/07/18 09:11:07;;;;;;;4.10;1.65;;;22.70;99.90;;;;;;5016851;28;20034;-89
2023/07/18 09:13:40;;;;;;;5.35;2.40;;;22.70;99.90;;;;;;4998331;28;20164;-91
2023/07/18 09:16:22;;;;;;;4.90;2.00;;;22.60;99.90;;;;;;4966241;28;20039;-91
2023/07/18 09:18:50;;;;;;;7.93;1.80;;;22.60;99.90;;;;;;4982061;28;20613;-91
2023/07/18 09:21:16;;;;;;;5.28;2.03;;;22.50;99.90;;;;;;4995037;28;20038;-89
2023/07/18 09:23:46;;;;;;;4.22;1.88;;;23.00;99.90;;;;;;4950979;28;20042;-90
2023/07/18 09:26:18;;;;;;;4.13;1.50;;;22.70;99.90;;;;;;5042928;28;20039;-90
2023/07/18 09:28:45;;;;;;;7.75;1.70;;;22.80;99.90;;;;;;4988064;28;20039;-90
2023/07/18 09:31:25;;;;;;;4.15;1.85;;;23.00;99.90;;;;;;5012205;28;20030;-90
2023/07/18 09:33:53;;;;;;;7.93;1.77;;;23.20;99.90;;;;;;5076698;28;20102;-91
2023/07/18 09:36:21;;;;;;;7.50;2.55;;;23.00;99.90;;;;;;5016074;28;20422;-88
2023/07/18 09:38:48;;;;;;;8.85;2.25;;;22.60;99.90;;;;;;4955080;28;20050;-91
2023/07/18 09:41:18;;;;;;;6.00;1.90;;;22.60;99.90;;;;;;5079190;28;20039;-89
2023/07/18 09:43:44;;;;;;;6.05;2.15;;;22.90;99.90;;;;;;4971427;28;20038;-87
2023/07/18 09:46:18;;;;;;;6.03;1.92;;;23.20;99.90;;;;;;4962796;28;20045;-89
2023/07/18 09:48:46;;;;;;;5.38;2.33;;;23.40;99.90;;;;;;5062087;28;20092;-91
2023/07/18 09:51:20;;;;;;;4.22;1.90;;;23.90;99.90;;;;;;4961622;28;20803;-89
2023/07/18 09:53:56;;;;;;;4.22;1.70;;;24.10;99.90;;;;;;5008579;28;20034;-90
2023/07/18 09:56:25;;;;;;;4.28;1.90;;;23.80;99.90;;;;;;4980518;28;20043;-89
2023/07/18 09:58:56;;;;;;;5.63;2.05;;;23.40;99.90;;;;;;4977551;28;20064;-90
2023/07/18 10:01:24;;;;;;;7.78;2.60;;;23.30;99.90;;;;;;4982357;28;20121;-90
2023/07/18 10:03:52;;;;;;;4.85;2.17;;;23.30;99.90;;;;;;4976719;28;20111;-90
2023/07/18 10:06:19;;;;;;;4.80;1.80;;;23.80;99.90;;;;;;4948142;28;20475;-93
2023/07/18 10:08:46;;;;;;;4.78;1.98;;;24.30;99.90;;;;;;4989097;28;20039;-92
2023/07/18 10:11:12;;;;;;;6.72;2.10;;;24.80;99.90;;;;;;4995178;28;20046;-91
2023/07/18 10:14:02;;;;;;;10.15;2.58;;;23.90;99.90;;;;;;4960263;28;20479;-90
2023/07/18 10:16:28;;;;;;;8.05;2.50;;;24.20;99.90;;;;;;4966496;28;20038;-91
2023/07/18 10:18:53;;;;;;;5.40;1.90;;;24.60;99.90;;;;;;4990472;28;20051;-92
2023/07/18 10:21:35;;;;;;;5.32;2.63;;;24.60;99.90;;;;;;4967673;28;20046;-92
2023/07/18 10:24:23;;;;;;;6.40;1.75;;;24.80;99.90;;;;;;4975338;28;20041;-90
2023/07/18 10:26:59;;;;;;;6.03;2.10;;;24.50;99.90;;;;;;5066344;28;20039;-93
2023/07/18 10:29:34;;;;;;;4.15;2.53;;;24.70;99.90;;;;;;4982557;28;20439;-91
2023/07/18 10:32:00;;;;;;;4.35;2.10;;;25.00;99.90;;;;;;4986467;28;20054;-91
2023/07/18 10:34:26;;;;;;;5.93;2.13;;;24.20;99.90;;;;;;4990299;28;20129;-91
2023/07/18 10:36:57;;;;;;;4.68;2.00;;;23.60;99.90;;;;;;4962149;28;20034;-90
2023/07/18 10:39:40;;;;;;;5.10;2.15;;;23.30;99.90;;;;;;4964916;28;20038;-89
2023/07/18 10:42:07;;;;;;;6.38;1.80;;;23.40;99.90;;;;;;4964114;28;20042;-90
2023/07/18 10:44:37;;;;;;;6.78;2.20;;;23.30;99.90;;;;;;4956457;28;20039;-89
2023/07/18 10:47:16;;;;;;;5.78;2.13;;;23.30;99.90;;;;;;5041483;28;20043;-89
2023/07/18 10:49:42;;;;;;;5.15;1.98;;;23.30;99.90;;;;;;4963856;28;20043;-89
2023/07/18 10:52:09;;;;;;;5.00;1.90;;;23.00;99.90;;;;;;5057698;28;20491;-90
2023/07/18 10:54:35;;;;;;;5.68;2.25;;;22.70;99.90;;;;;;4972836;28;20495;-92
2023/07/18 10:57:03;;;;;;;6.47;2.05;;;22.80;99.90;;;;;;4982643;28;20118;-88
2023/07/18 10:59:32;;;;;;;5.70;1.92;;;22.70;99.90;;;;;;4965620;28;20050;-91
2023/07/18 11:02:00;;;;;;;8.63;2.72;;;22.50;99.90;;;;;;5066523;28;20047;-87
2023/07/18 11:04:28;;;;;;;5.45;2.30;;;22.50;99.90;;;;;;4974302;28;20084;-90
2023/07/18 11:06:55;;;;;;;7.93;2.67;;;22.40;99.90;;;;;;4964871;28;20491;-90
2023/07/18 11:09:21;;;;;;;6.60;2.25;;;22.50;99.90;;;;;;4975598;28;20050;-89
2023/07/18 11:11:47;;;;;;;7.20;2.55;;;22.60;99.90;;;;;;5044602;28;20055;-90
2023/07/18 11:14:13;;;;;;;6.40;2.28;;;22.80;99.90;;;;;;5047237;28;20093;-90
2023/07/18 11:16:39;;;;;;;6.95;2.40;;;23.20;99.90;;;;;;4955245;28;20038;-91
2023/07/18 11:19:06;;;;;;;9.80;2.42;;;24.00;99.90;;;;;;4964249;28;20036;-90
2023/07/18 11:21:36;;;;;;;5.95;2.17;;;24.30;99.90;;;;;;4990987;28;20057;-92
2023/07/18 11:24:02;;;;;;;6.53;1.98;;;24.70;99.90;;;;;;5070192;28;20103;-89
2023/07/18 11:26:28;;;;;;;4.82;2.03;;;25.50;99.90;;;;;;4960033;28;20057;-91
2023/07/18 11:28:56;;;;;;;6.32;1.60;;;25.40;99.90;;;;;;4947566;28;20042;-90
2023/07/18 11:31:29;;;;;;;5.63;1.70;;;25.90;99.90;;;;;;4966929;28;20039;-90
2023/07/18 11:34:00;;;;;;;4.18;1.77;;;26.70;99.90;;;;;;4969722;28;20066;-89
2023/07/18 11:36:30;;;;;;;3.83;1.80;;;26.90;99.90;;;;;;4956398;28;20047;-89
2023/07/18 11:39:01;;;;;;;3.83;1.40;;;27.00;99.90;;;;;;4966878;28;20042;-90
2023/07/18 11:41:34;;;;;;;4.57;1.95;;;27.10;99.90;;;;;;5049134;28;20465;-90
2023/07/18 11:44:04;;;;;;;5.22;2.08;;;27.10;99.90;;;;;;5048228;28;20049;-90
2023/07/18 11:46:42;;;;;;;4.18;1.65;;;27.10;99.90;;;;;;4971903;28;20042;-90
2023/07/18 11:49:15;;;;;;;3.15;1.67;;;26.70;99.90;;;;;;4957416;28;20100;-91
2023/07/18 11:51:43;;;;;;;5.38;1.90;;;26.20;99.90;;;;;;4940810;28;20051;-92
2023/07/18 11:54:09;;;;;;;5.47;2.17;;;26.20;99.90;;;;;;4973756;28;20050;-91
2023/07/18 11:56:35;;;;;;;4.65;1.73;;;25.70;99.90;;;;;;4990612;28;20114;-92
2023/07/18 11:59:02;;;;;;;4.18;1.67;;;26.50;99.90;;;;;;5059515;28;20070;-91
2023/07/18 12:01:27;;;;;;;6.85;1.88;;;26.50;99.90;;;;;;4961397;28;21735;-90
2023/07/18 12:03:54;;;;;;;3.33;1.40;;;26.30;99.90;;;;;;4997429;28;20075;-91
2023/07/18 12:06:23;;;;;;;4.47;1.38;;;26.70;99.90;;;;;;4950893;28;20167;-90
2023/07/18 12:08:49;;;;;;;5.43;1.70;;;27.10;99.90;;;;;;5030795;28;20126;-88
2023/07/18 12:11:17;;;;;;;3.50;1.60;;;26.80;99.90;;;;;;4972666;28;20053;-90
2023/07/18 12:13:45;;;;;;;4.13;1.80;;;27.20;99.90;;;;;;4970238;28;20043;-88
2023/07/18 12:16:11;;;;;;;3.80;1.92;;;27.00;99.90;;;;;;4973167;28;20035;-89
2023/07/18 12:18:38;;;;;;;3.20;1.40;;;26.90;99.90;;;;;;5048322;28;20038;-89
2023/07/18 12:21:06;;;;;;;5.30;1.90;;;27.50;99.90;;;;;;4969161;28;20061;-90
2023/07/18 12:23:32;;;;;;;3.47;2.20;;;26.90;94.10;;;;;;5062767;28;20074;-88
2023/07/18 12:25:58;;;;;;;3.97;1.67;;;25.50;99.90;;;;;;4955252;28;20089;-88
2023/07/18 12:28:24;;;;;;;4.47;1.63;;;25.00;99.90;;;;;;4993390;28;20035;-88
2023/07/18 12:30:52;;;;;;;3.42;1.80;;;25.30;99.90;;;;;;4964655;28;20038;-88
2023/07/18 12:33:18;;;;;;;8.00;1.80;;;25.20;99.90;;;;;;4959392;28;20145;-90
2023/07/18 12:35:44;;;;;;;6.03;2.00;;;24.80;99.90;;;;;;4959443;28;20048;-89
2023/07/18 12:38:12;;;;;;;4.18;2.15;;;24.40;99.90;;;;;;5001528;28;20027;-87
2023/07/18 12:40:39;;;;;;;3.10;1.40;;;24.40;99.90;;;;;;4973511;28;20034;-89
2023/07/18 12:43:06;;;;;;;4.43;2.08;;;24.30;99.90;;;;;;4980689;28;20133;-90